Pagrindinis puslapis
METAR-TAF:

METAR-TAF

Oro uostai :

Itaituba, Para, Brazilija

platuma: 04-15S, ilguma: 056-00W, Aukštis: 34 m

Dabartinis oras

Ataskaita buvo paskelbta 1 valandą ir 9 minutes, ne 20:00 UTC
Vėjas 10 kt iš Šiaurės Rytų
Temperatūra 32°C
Drėgmė 63%
Slėgis 1005 hPa
Matomumas 10 km arba daugiau
Mažai debesys ne aukštis 2500 ft

METAR: SBIH 122000Z 05010KT 9999 FEW025 32/24 Q1005

Laikas: 18:09 (21:09 UTC)

Prognozė

Ataskaita buvo paskelbta 6 valandos ir 9 minutes, ne 15:00 UTC
Prognozė galioja nuo 12 metu 18 UTC su 13 metu 06 UTC
Vėjas 10 kt iš Rytų
Matomumas 10 km arba daugiau
Išsisklaidę debesys ne aukštis 2500 ft
Tikimybė 30%
nuo 12 metu 19 UTC su 12 metu 21 UTC
Mažai debesys ne aukštis 2000 ft
Mažai debesys ne aukštis 2300 ft, Liūtiniai kamuoliniai debesys.
perkūnija

TAF: SBIH 121500Z 1218/1306 09010KT 9999 SCT025 TX33/1219Z TN24/1306Z PROB30 1219/1221 TS FEW020 FEW023CB RMK PGY

Orai ataskaitas ir orų prognozės (METAR, TAF).

turimą stotys yra geltonos ir raudonos taškus žemėlapyje.

Perkelti pele per norėdami pamatyti stoties vardą.

Tada spustelėkite, norėdami matyti oro stebėjimo ir prognozės.

Norėdami pakeisti žemėlapį: spustelėkite ant žalios mygtukų su juodo kryžiaus žemyn,; žalią mygtuką su brūkšneliu, jei norite nutolinti; arba žalių rodyklių gretimoms žemėlapius.


METAR-TAF: